sensor_id;sensor_type;location;lat;lon;timestamp;temperature;humidity
12977;DHT22;6553;48.412;9.514;2022-11-14T00:00:26;17.50;75.30
12977;DHT22;6553;48.412;9.514;2022-11-14T00:03:12;17.60;75.30
12977;DHT22;6553;48.412;9.514;2022-11-14T00:05:56;17.60;75.50
12977;DHT22;6553;48.412;9.514;2022-11-14T00:08:40;17.60;75.30
12977;DHT22;6553;48.412;9.514;2022-11-14T00:11:24;17.60;75.30
12977;DHT22;6553;48.412;9.514;2022-11-14T00:14:10;17.60;75.20
12977;DHT22;6553;48.412;9.514;2022-11-14T00:16:54;17.50;75.20
12977;DHT22;6553;48.412;9.514;2022-11-14T00:19:39;17.50;75.30
12977;DHT22;6553;48.412;9.514;2022-11-14T00:22:24;17.50;75.30
12977;DHT22;6553;48.412;9.514;2022-11-14T00:25:08;17.50;75.00
12977;DHT22;6553;48.412;9.514;2022-11-14T00:27:56;17.60;75.20
12977;DHT22;6553;48.412;9.514;2022-11-14T00:30:44;17.60;75.20
12977;DHT22;6553;48.412;9.514;2022-11-14T00:33:30;17.60;75.40
12977;DHT22;6553;48.412;9.514;2022-11-14T00:36:14;17.60;75.30
12977;DHT22;6553;48.412;9.514;2022-11-14T00:38:58;17.50;75.10
12977;DHT22;6553;48.412;9.514;2022-11-14T00:41:43;17.50;75.10
12977;DHT22;6553;48.412;9.514;2022-11-14T00:44:27;17.50;75.10
12977;DHT22;6553;48.412;9.514;2022-11-14T00:47:11;17.50;75.30
12977;DHT22;6553;48.412;9.514;2022-11-14T00:49:56;17.50;75.20
12977;DHT22;6553;48.412;9.514;2022-11-14T00:52:40;17.60;75.30
12977;DHT22;6553;48.412;9.514;2022-11-14T00:55:24;17.50;75.10
12977;DHT22;6553;48.412;9.514;2022-11-14T00:58:09;17.60;75.20
12977;DHT22;6553;48.412;9.514;2022-11-14T01:00:53;17.50;75.10
12977;DHT22;6553;48.412;9.514;2022-11-14T01:03:37;17.50;75.30
12977;DHT22;6553;48.412;9.514;2022-11-14T01:06:22;17.60;75.40
12977;DHT22;6553;48.412;9.514;2022-11-14T01:09:07;17.60;75.20
12977;DHT22;6553;48.412;9.514;2022-11-14T01:11:51;17.50;75.00
12977;DHT22;6553;48.412;9.514;2022-11-14T01:14:35;17.50;75.10
12977;DHT22;6553;48.412;9.514;2022-11-14T01:17:19;17.60;75.10
12977;DHT22;6553;48.412;9.514;2022-11-14T01:20:04;17.50;75.10
12977;DHT22;6553;48.412;9.514;2022-11-14T01:22:49;17.50;75.20
12977;DHT22;6553;48.412;9.514;2022-11-14T01:25:34;17.60;75.20
12977;DHT22;6553;48.412;9.514;2022-11-14T01:28:19;17.50;75.10
12977;DHT22;6553;48.412;9.514;2022-11-14T01:31:23;17.50;75.00
12977;DHT22;6553;48.412;9.514;2022-11-14T01:34:09;17.60;75.30
12977;DHT22;6553;48.412;9.514;2022-11-14T01:36:53;17.50;75.30
12977;DHT22;6553;48.412;9.514;2022-11-14T01:39:37;17.50;75.10
12977;DHT22;6553;48.412;9.514;2022-11-14T01:42:21;17.50;75.10
12977;DHT22;6553;48.412;9.514;2022-11-14T01:45:46;17.50;75.00
12977;DHT22;6553;48.412;9.514;2022-11-14T01:49:04;17.60;75.20
12977;DHT22;6553;48.412;9.514;2022-11-14T01:51:57;17.50;75.10
12977;DHT22;6553;48.412;9.514;2022-11-14T01:54:48;17.50;75.00
12977;DHT22;6553;48.412;9.514;2022-11-14T01:57:39;17.50;75.10
12977;DHT22;6553;48.412;9.514;2022-11-14T02:00:27;17.50;75.20
12977;DHT22;6553;48.412;9.514;2022-11-14T02:03:13;17.50;75.10
12977;DHT22;6553;48.412;9.514;2022-11-14T02:06:00;17.50;75.00
12977;DHT22;6553;48.412;9.514;2022-11-14T02:08:47;17.50;75.00
12977;DHT22;6553;48.412;9.514;2022-11-14T02:11:36;17.50;75.20
12977;DHT22;6553;48.412;9.514;2022-11-14T02:14:23;17.50;75.10
12977;DHT22;6553;48.412;9.514;2022-11-14T02:17:08;17.50;75.10
12977;DHT22;6553;48.412;9.514;2022-11-14T02:22:46;17.50;74.90
12977;DHT22;6553;48.412;9.514;2022-11-14T02:25:30;17.50;75.10
12977;DHT22;6553;48.412;9.514;2022-11-14T02:28:14;17.50;75.20
12977;DHT22;6553;48.412;9.514;2022-11-14T02:30:59;17.50;75.20
12977;DHT22;6553;48.412;9.514;2022-11-14T02:33:44;17.50;75.10
12977;DHT22;6553;48.412;9.514;2022-11-14T02:36:28;17.50;75.00
12977;DHT22;6553;48.412;9.514;2022-11-14T02:39:12;17.50;75.00
12977;DHT22;6553;48.412;9.514;2022-11-14T02:41:57;17.50;75.10
12977;DHT22;6553;48.412;9.514;2022-11-14T02:44:42;17.50;75.10
12977;DHT22;6553;48.412;9.514;2022-11-14T02:47:26;17.50;75.10
12977;DHT22;6553;48.412;9.514;2022-11-14T02:50:10;17.50;75.00
12977;DHT22;6553;48.412;9.514;2022-11-14T02:52:55;17.50;75.00
12977;DHT22;6553;48.412;9.514;2022-11-14T02:55:39;17.50;75.20
12977;DHT22;6553;48.412;9.514;2022-11-14T02:58:24;17.50;75.10
12977;DHT22;6553;48.412;9.514;2022-11-14T03:01:09;17.50;75.10
12977;DHT22;6553;48.412;9.514;2022-11-14T03:03:53;17.50;75.00
12977;DHT22;6553;48.412;9.514;2022-11-14T03:06:38;17.50;75.10
12977;DHT22;6553;48.412;9.514;2022-11-14T03:09:22;17.50;75.10
12977;DHT22;6553;48.412;9.514;2022-11-14T03:12:06;17.50;75.10
12977;DHT22;6553;48.412;9.514;2022-11-14T03:14:51;17.50;75.10
12977;DHT22;6553;48.412;9.514;2022-11-14T03:17:35;17.50;75.10
12977;DHT22;6553;48.412;9.514;2022-11-14T03:20:20;17.50;75.80
12977;DHT22;6553;48.412;9.514;2022-11-14T03:23:04;17.50;75.00
12977;DHT22;6553;48.412;9.514;2022-11-14T03:25:48;17.50;75.10
12977;DHT22;6553;48.412;9.514;2022-11-14T03:28:33;17.50;75.20
12977;DHT22;6553;48.412;9.514;2022-11-14T03:31:18;17.50;75.10
12977;DHT22;6553;48.412;9.514;2022-11-14T03:34:03;17.50;75.10
12977;DHT22;6553;48.412;9.514;2022-11-14T03:36:48;17.50;75.00
12977;DHT22;6553;48.412;9.514;2022-11-14T03:39:32;17.50;75.00
12977;DHT22;6553;48.412;9.514;2022-11-14T03:42:17;17.50;75.10
12977;DHT22;6553;48.412;9.514;2022-11-14T03:45:01;17.50;75.10
12977;DHT22;6553;48.412;9.514;2022-11-14T03:47:45;17.50;75.10
12977;DHT22;6553;48.412;9.514;2022-11-14T03:50:29;17.50;75.90
12977;DHT22;6553;48.412;9.514;2022-11-14T03:53:13;17.50;75.00
12977;DHT22;6553;48.412;9.514;2022-11-14T03:55:57;17.50;75.00
12977;DHT22;6553;48.412;9.514;2022-11-14T03:58:41;17.50;75.10
12977;DHT22;6553;48.412;9.514;2022-11-14T04:01:26;17.50;75.10
12977;DHT22;6553;48.412;9.514;2022-11-14T04:04:12;17.50;75.10
12977;DHT22;6553;48.412;9.514;2022-11-14T04:06:56;17.50;75.10
12977;DHT22;6553;48.412;9.514;2022-11-14T04:09:40;17.50;75.00
12977;DHT22;6553;48.412;9.514;2022-11-14T04:12:25;17.50;74.90
12977;DHT22;6553;48.412;9.514;2022-11-14T04:15:09;17.50;75.10
12977;DHT22;6553;48.412;9.514;2022-11-14T04:17:53;17.50;75.20
12977;DHT22;6553;48.412;9.514;2022-11-14T04:20:38;17.50;75.00
12977;DHT22;6553;48.412;9.514;2022-11-14T04:23:22;17.50;75.10
12977;DHT22;6553;48.412;9.514;2022-11-14T04:26:07;17.50;75.00
12977;DHT22;6553;48.412;9.514;2022-11-14T04:28:51;17.50;75.00
12977;DHT22;6553;48.412;9.514;2022-11-14T04:31:35;17.50;75.10
12977;DHT22;6553;48.412;9.514;2022-11-14T04:34:19;17.50;75.60
12977;DHT22;6553;48.412;9.514;2022-11-14T04:37:04;17.50;75.10
12977;DHT22;6553;48.412;9.514;2022-11-14T04:39:48;17.50;75.10
12977;DHT22;6553;48.412;9.514;2022-11-14T04:42:32;17.50;74.90
12977;DHT22;6553;48.412;9.514;2022-11-14T04:45:16;17.50;75.10
12977;DHT22;6553;48.412;9.514;2022-11-14T04:48:00;17.50;75.10
12977;DHT22;6553;48.412;9.514;2022-11-14T04:50:45;17.50;76.00
12977;DHT22;6553;48.412;9.514;2022-11-14T04:53:29;17.50;75.10
12977;DHT22;6553;48.412;9.514;2022-11-14T04:56:14;17.50;75.00
12977;DHT22;6553;48.412;9.514;2022-11-14T04:58:58;17.50;75.00
12977;DHT22;6553;48.412;9.514;2022-11-14T05:01:43;17.50;75.10
12977;DHT22;6553;48.412;9.514;2022-11-14T05:04:27;17.50;75.10
12977;DHT22;6553;48.412;9.514;2022-11-14T05:07:12;17.50;75.20
12977;DHT22;6553;48.412;9.514;2022-11-14T05:09:57;17.50;75.10
12977;DHT22;6553;48.412;9.514;2022-11-14T05:12:41;17.50;75.10
12977;DHT22;6553;48.412;9.514;2022-11-14T05:15:26;17.50;75.10
12977;DHT22;6553;48.412;9.514;2022-11-14T05:18:10;17.50;75.10
12977;DHT22;6553;48.412;9.514;2022-11-14T05:20:57;17.50;75.20
12977;DHT22;6553;48.412;9.514;2022-11-14T05:23:42;17.50;75.20
12977;DHT22;6553;48.412;9.514;2022-11-14T05:26:27;17.50;75.00
12977;DHT22;6553;48.412;9.514;2022-11-14T05:29:11;17.50;75.10
12977;DHT22;6553;48.412;9.514;2022-11-14T05:31:56;17.50;75.20
12977;DHT22;6553;48.412;9.514;2022-11-14T05:34:40;17.50;75.20
12977;DHT22;6553;48.412;9.514;2022-11-14T05:37:24;17.50;75.20
12977;DHT22;6553;48.412;9.514;2022-11-14T05:40:09;17.50;75.20
12977;DHT22;6553;48.412;9.514;2022-11-14T05:42:54;17.50;75.20
12977;DHT22;6553;48.412;9.514;2022-11-14T05:45:39;17.50;75.10
12977;DHT22;6553;48.412;9.514;2022-11-14T05:48:23;17.50;75.20
12977;DHT22;6553;48.412;9.514;2022-11-14T05:51:11;17.50;75.20
12977;DHT22;6553;48.412;9.514;2022-11-14T05:53:55;17.50;75.20
12977;DHT22;6553;48.412;9.514;2022-11-14T05:56:40;17.50;75.20
12977;DHT22;6553;48.412;9.514;2022-11-14T05:59:24;17.50;75.10
12977;DHT22;6553;48.412;9.514;2022-11-14T06:02:09;17.50;75.20
12977;DHT22;6553;48.412;9.514;2022-11-14T06:04:53;17.50;75.20
12977;DHT22;6553;48.412;9.514;2022-11-14T06:07:37;17.50;75.30
12977;DHT22;6553;48.412;9.514;2022-11-14T06:10:22;17.50;75.30
12977;DHT22;6553;48.412;9.514;2022-11-14T06:13:08;17.50;75.20
12977;DHT22;6553;48.412;9.514;2022-11-14T06:15:52;17.50;75.20
12977;DHT22;6553;48.412;9.514;2022-11-14T06:18:37;17.50;75.30
12977;DHT22;6553;48.412;9.514;2022-11-14T06:21:23;17.50;75.30
12977;DHT22;6553;48.412;9.514;2022-11-14T06:24:08;17.50;75.30
12977;DHT22;6553;48.412;9.514;2022-11-14T06:26:52;17.50;75.30
12977;DHT22;6553;48.412;9.514;2022-11-14T06:29:36;17.50;75.30
12977;DHT22;6553;48.412;9.514;2022-11-14T06:32:20;17.50;75.30
12977;DHT22;6553;48.412;9.514;2022-11-14T06:35:05;17.50;75.30
12977;DHT22;6553;48.412;9.514;2022-11-14T06:37:51;17.50;75.30
12977;DHT22;6553;48.412;9.514;2022-11-14T06:40:35;17.50;75.40
12977;DHT22;6553;48.412;9.514;2022-11-14T06:43:19;17.50;75.40
12977;DHT22;6553;48.412;9.514;2022-11-14T06:46:05;17.50;75.30
12977;DHT22;6553;48.412;9.514;2022-11-14T06:48:50;17.50;75.30
12977;DHT22;6553;48.412;9.514;2022-11-14T06:51:35;17.50;75.30
12977;DHT22;6553;48.412;9.514;2022-11-14T06:54:19;17.50;75.30
12977;DHT22;6553;48.412;9.514;2022-11-14T06:57:03;17.50;75.40
12977;DHT22;6553;48.412;9.514;2022-11-14T06:59:48;17.50;75.40
12977;DHT22;6553;48.412;9.514;2022-11-14T07:02:32;17.50;75.30
12977;DHT22;6553;48.412;9.514;2022-11-14T07:05:17;17.50;75.30
12977;DHT22;6553;48.412;9.514;2022-11-14T07:08:01;17.50;75.40
12977;DHT22;6553;48.412;9.514;2022-11-14T07:10:45;17.50;75.40
12977;DHT22;6553;48.412;9.514;2022-11-14T07:13:30;17.50;75.40
12977;DHT22;6553;48.412;9.514;2022-11-14T07:16:15;17.50;75.40
12977;DHT22;6553;48.412;9.514;2022-11-14T07:19:01;17.50;75.40
12977;DHT22;6553;48.412;9.514;2022-11-14T07:21:47;17.50;75.50
12977;DHT22;6553;48.412;9.514;2022-11-14T07:24:31;17.50;75.40
12977;DHT22;6553;48.412;9.514;2022-11-14T07:27:15;17.50;75.50
12977;DHT22;6553;48.412;9.514;2022-11-14T07:29:59;17.50;75.40
12977;DHT22;6553;48.412;9.514;2022-11-14T07:32:43;17.60;75.50
12977;DHT22;6553;48.412;9.514;2022-11-14T07:35:27;17.60;75.50
12977;DHT22;6553;48.412;9.514;2022-11-14T07:38:11;17.50;75.50
12977;DHT22;6553;48.412;9.514;2022-11-14T07:41:04;17.50;75.50
12977;DHT22;6553;48.412;9.514;2022-11-14T07:43:50;17.50;75.60
12977;DHT22;6553;48.412;9.514;2022-11-14T07:46:34;17.50;75.50
12977;DHT22;6553;48.412;9.514;2022-11-14T07:49:18;17.60;75.60
12977;DHT22;6553;48.412;9.514;2022-11-14T07:52:03;17.50;76.30
12977;DHT22;6553;48.412;9.514;2022-11-14T07:54:47;17.60;75.60
12977;DHT22;6553;48.412;9.514;2022-11-14T07:57:32;17.50;75.50
12977;DHT22;6553;48.412;9.514;2022-11-14T08:00:16;17.50;75.60
12977;DHT22;6553;48.412;9.514;2022-11-14T08:03:01;17.60;75.60
12977;DHT22;6553;48.412;9.514;2022-11-14T08:05:45;17.50;75.60
12977;DHT22;6553;48.412;9.514;2022-11-14T08:08:30;17.60;75.70
12977;DHT22;6553;48.412;9.514;2022-11-14T08:11:14;17.50;75.70
12977;DHT22;6553;48.412;9.514;2022-11-14T08:13:59;17.50;75.60
12977;DHT22;6553;48.412;9.514;2022-11-14T08:16:43;17.50;75.70
12977;DHT22;6553;48.412;9.514;2022-11-14T08:19:27;17.60;75.80
12977;DHT22;6553;48.412;9.514;2022-11-14T08:22:11;17.60;75.80
12977;DHT22;6553;48.412;9.514;2022-11-14T08:24:56;17.60;75.70
12977;DHT22;6553;48.412;9.514;2022-11-14T08:27:40;17.50;75.70
12977;DHT22;6553;48.412;9.514;2022-11-14T08:30:25;17.60;75.80
12977;DHT22;6553;48.412;9.514;2022-11-14T08:33:09;17.50;75.70
12977;DHT22;6553;48.412;9.514;2022-11-14T08:35:53;17.60;75.90
12977;DHT22;6553;48.412;9.514;2022-11-14T08:38:38;17.60;75.80
12977;DHT22;6553;48.412;9.514;2022-11-14T08:41:22;17.60;75.90
12977;DHT22;6553;48.412;9.514;2022-11-14T08:44:07;17.60;75.90
12977;DHT22;6553;48.412;9.514;2022-11-14T08:46:51;17.60;75.90
12977;DHT22;6553;48.412;9.514;2022-11-14T08:49:35;17.60;75.90
12977;DHT22;6553;48.412;9.514;2022-11-14T08:52:20;17.50;75.80
12977;DHT22;6553;48.412;9.514;2022-11-14T08:55:05;17.50;75.80
12977;DHT22;6553;48.412;9.514;2022-11-14T08:57:52;17.60;76.80
12977;DHT22;6553;48.412;9.514;2022-11-14T09:00:36;17.50;76.00
12977;DHT22;6553;48.412;9.514;2022-11-14T09:03:21;17.60;76.00
12977;DHT22;6553;48.412;9.514;2022-11-14T09:06:05;17.60;76.90
12977;DHT22;6553;48.412;9.514;2022-11-14T09:08:50;17.60;76.10
12977;DHT22;6553;48.412;9.514;2022-11-14T09:11:33;17.50;76.00
12977;DHT22;6553;48.412;9.514;2022-11-14T09:14:17;17.60;76.10
12977;DHT22;6553;48.412;9.514;2022-11-14T09:17:02;17.60;76.20
12977;DHT22;6553;48.412;9.514;2022-11-14T09:19:46;17.60;76.10
12977;DHT22;6553;48.412;9.514;2022-11-14T09:22:30;17.60;76.20
12977;DHT22;6553;48.412;9.514;2022-11-14T09:25:14;17.50;76.10
12977;DHT22;6553;48.412;9.514;2022-11-14T09:28:03;17.60;76.20
12977;DHT22;6553;48.412;9.514;2022-11-14T09:30:49;17.60;76.20
12977;DHT22;6553;48.412;9.514;2022-11-14T09:33:34;17.60;76.20
12977;DHT22;6553;48.412;9.514;2022-11-14T09:36:18;17.60;76.20
12977;DHT22;6553;48.412;9.514;2022-11-14T09:39:03;17.60;76.20
12977;DHT22;6553;48.412;9.514;2022-11-14T09:45:12;17.60;76.20
12977;DHT22;6553;48.412;9.514;2022-11-14T09:48:05;17.60;76.20
12977;DHT22;6553;48.412;9.514;2022-11-14T09:51:18;17.60;76.20
12977;DHT22;6553;48.412;9.514;2022-11-14T09:54:20;17.60;76.20
12977;DHT22;6553;48.412;9.514;2022-11-14T09:57:15;17.60;76.20
12977;DHT22;6553;48.412;9.514;2022-11-14T10:00:10;17.60;76.20
12977;DHT22;6553;48.412;9.514;2022-11-14T10:19:51;17.60;76.20
12977;DHT22;6553;48.412;9.514;2022-11-14T10:29:39;17.60;76.20
12977;DHT22;6553;48.412;9.514;2022-11-14T10:33:19;17.60;76.20
12977;DHT22;6553;48.412;9.514;2022-11-14T10:42:35;17.60;76.40
12977;DHT22;6553;48.412;9.514;2022-11-14T10:45:47;17.60;76.40
12977;DHT22;6553;48.412;9.514;2022-11-14T10:48:44;17.60;76.30
12977;DHT22;6553;48.412;9.514;2022-11-14T10:51:42;17.60;76.30
12977;DHT22;6553;48.412;9.514;2022-11-14T10:54:43;17.60;76.20
12977;DHT22;6553;48.412;9.514;2022-11-14T10:57:31;17.70;76.40
12977;DHT22;6553;48.412;9.514;2022-11-14T11:00:18;17.70;76.50
12977;DHT22;6553;48.412;9.514;2022-11-14T11:03:05;17.70;76.40
12977;DHT22;6553;48.412;9.514;2022-11-14T11:05:52;17.70;76.40
12977;DHT22;6553;48.412;9.514;2022-11-14T11:08:42;17.70;76.30
12977;DHT22;6553;48.412;9.514;2022-11-14T11:12:00;17.70;76.30
12977;DHT22;6553;48.412;9.514;2022-11-14T11:18:25;17.70;76.50
12977;DHT22;6553;48.412;9.514;2022-11-14T11:21:12;17.70;76.50
12977;DHT22;6553;48.412;9.514;2022-11-14T11:23:58;17.70;76.50
12977;DHT22;6553;48.412;9.514;2022-11-14T11:26:42;17.70;76.50
12977;DHT22;6553;48.412;9.514;2022-11-14T11:29:26;17.70;76.30
12977;DHT22;6553;48.412;9.514;2022-11-14T11:32:10;17.70;76.40
12977;DHT22;6553;48.412;9.514;2022-11-14T11:34:56;17.70;76.50
12977;DHT22;6553;48.412;9.514;2022-11-14T11:37:50;17.70;76.50
12977;DHT22;6553;48.412;9.514;2022-11-14T11:40:43;17.70;76.60
12977;DHT22;6553;48.412;9.514;2022-11-14T11:46:46;17.70;76.60
12977;DHT22;6553;48.412;9.514;2022-11-14T11:49:48;17.70;76.70
12977;DHT22;6553;48.412;9.514;2022-11-14T11:56:08;17.70;76.70
12977;DHT22;6553;48.412;9.514;2022-11-14T11:59:30;17.70;77.60
12977;DHT22;6553;48.412;9.514;2022-11-14T12:02:24;17.70;76.90
12977;DHT22;6553;48.412;9.514;2022-11-14T12:11:52;17.70;77.00
12977;DHT22;6553;48.412;9.514;2022-11-14T12:24:36;17.70;77.00
12977;DHT22;6553;48.412;9.514;2022-11-14T12:27:48;17.70;77.00
12977;DHT22;6553;48.412;9.514;2022-11-14T12:30:48;17.70;77.00
12977;DHT22;6553;48.412;9.514;2022-11-14T12:33:42;17.70;77.00
12977;DHT22;6553;48.412;9.514;2022-11-14T12:36:31;17.70;77.00
12977;DHT22;6553;48.412;9.514;2022-11-14T12:39:24;17.80;77.00
12977;DHT22;6553;48.412;9.514;2022-11-14T12:42:18;17.70;77.00
12977;DHT22;6553;48.412;9.514;2022-11-14T12:48:31;17.80;77.10
12977;DHT22;6553;48.412;9.514;2022-11-14T12:54:42;17.80;77.20
12977;DHT22;6553;48.412;9.514;2022-11-14T13:10:55;17.80;77.40
12977;DHT22;6553;48.412;9.514;2022-11-14T13:13:59;17.70;77.30
12977;DHT22;6553;48.412;9.514;2022-11-14T13:35:49;17.80;77.50
12977;DHT22;6553;48.412;9.514;2022-11-14T13:42:20;17.80;77.50
12977;DHT22;6553;48.412;9.514;2022-11-14T13:45:28;17.80;77.60
12977;DHT22;6553;48.412;9.514;2022-11-14T13:51:44;17.80;77.60
12977;DHT22;6553;48.412;9.514;2022-11-14T13:54:29;17.80;77.50
12977;DHT22;6553;48.412;9.514;2022-11-14T14:14:31;17.80;77.70
12977;DHT22;6553;48.412;9.514;2022-11-14T14:17:21;17.80;78.10
12977;DHT22;6553;48.412;9.514;2022-11-14T14:20:46;17.80;78.40
12977;DHT22;6553;48.412;9.514;2022-11-14T14:23:41;17.80;78.40
12977;DHT22;6553;48.412;9.514;2022-11-14T14:26:47;17.80;78.40
12977;DHT22;6553;48.412;9.514;2022-11-14T14:29:55;17.80;78.50
12977;DHT22;6553;48.412;9.514;2022-11-14T14:33:21;17.70;78.30
12977;DHT22;6553;48.412;9.514;2022-11-14T14:36:33;17.80;78.40
12977;DHT22;6553;48.412;9.514;2022-11-14T14:39:26;17.80;78.40
12977;DHT22;6553;48.412;9.514;2022-11-14T14:42:12;17.80;78.40
12977;DHT22;6553;48.412;9.514;2022-11-14T14:44:57;17.80;78.40
12977;DHT22;6553;48.412;9.514;2022-11-14T14:47:47;17.80;78.40
12977;DHT22;6553;48.412;9.514;2022-11-14T14:50:39;17.80;78.40
12977;DHT22;6553;48.412;9.514;2022-11-14T14:53:26;17.70;78.20
12977;DHT22;6553;48.412;9.514;2022-11-14T14:56:23;17.80;78.40
12977;DHT22;6553;48.412;9.514;2022-11-14T14:59:20;17.70;78.30
12977;DHT22;6553;48.412;9.514;2022-11-14T15:02:14;17.70;78.40
12977;DHT22;6553;48.412;9.514;2022-11-14T15:05:01;17.80;78.60
12977;DHT22;6553;48.412;9.514;2022-11-14T15:07:46;17.80;78.40
12977;DHT22;6553;48.412;9.514;2022-11-14T15:10:32;17.80;78.60
12977;DHT22;6553;48.412;9.514;2022-11-14T15:13:17;17.80;78.50
12977;DHT22;6553;48.412;9.514;2022-11-14T15:16:03;17.80;78.50
12977;DHT22;6553;48.412;9.514;2022-11-14T15:18:50;17.80;78.40
12977;DHT22;6553;48.412;9.514;2022-11-14T15:21:37;17.80;80.00
12977;DHT22;6553;48.412;9.514;2022-11-14T15:24:22;17.80;79.30
12977;DHT22;6553;48.412;9.514;2022-11-14T15:27:13;17.80;79.30
12977;DHT22;6553;48.412;9.514;2022-11-14T15:30:02;17.80;79.30
12977;DHT22;6553;48.412;9.514;2022-11-14T15:32:50;17.80;79.30
12977;DHT22;6553;48.412;9.514;2022-11-14T15:35:38;17.80;79.30
12977;DHT22;6553;48.412;9.514;2022-11-14T15:38:23;17.70;79.20
12977;DHT22;6553;48.412;9.514;2022-11-14T15:44:04;17.80;79.30
12977;DHT22;6553;48.412;9.514;2022-11-14T15:46:49;17.80;79.10
12977;DHT22;6553;48.412;9.514;2022-11-14T15:49:34;17.80;79.30
12977;DHT22;6553;48.412;9.514;2022-11-14T15:52:26;17.70;79.20
12977;DHT22;6553;48.412;9.514;2022-11-14T15:55:17;17.80;79.30
12977;DHT22;6553;48.412;9.514;2022-11-14T15:58:03;17.70;79.20
12977;DHT22;6553;48.412;9.514;2022-11-14T16:00:52;17.70;79.10
12977;DHT22;6553;48.412;9.514;2022-11-14T16:03:37;17.70;79.00
12977;DHT22;6553;48.412;9.514;2022-11-14T16:06:22;17.70;79.20
12977;DHT22;6553;48.412;9.514;2022-11-14T16:09:12;17.70;79.20
12977;DHT22;6553;48.412;9.514;2022-11-14T16:11:59;17.70;79.20
12977;DHT22;6553;48.412;9.514;2022-11-14T16:14:43;17.70;79.00
12977;DHT22;6553;48.412;9.514;2022-11-14T16:17:34;17.70;79.10
12977;DHT22;6553;48.412;9.514;2022-11-14T16:20:26;17.70;79.10
12977;DHT22;6553;48.412;9.514;2022-11-14T16:23:12;17.70;79.20
12977;DHT22;6553;48.412;9.514;2022-11-14T16:25:56;17.70;79.00
12977;DHT22;6553;48.412;9.514;2022-11-14T16:28:40;17.70;79.10
12977;DHT22;6553;48.412;9.514;2022-11-14T16:31:24;17.70;79.10
12977;DHT22;6553;48.412;9.514;2022-11-14T16:34:14;17.70;79.10
12977;DHT22;6553;48.412;9.514;2022-11-14T16:37:02;17.70;79.10
12977;DHT22;6553;48.412;9.514;2022-11-14T16:39:46;17.70;79.10
12977;DHT22;6553;48.412;9.514;2022-11-14T16:42:31;17.70;79.00
12977;DHT22;6553;48.412;9.514;2022-11-14T16:45:16;17.70;79.00
12977;DHT22;6553;48.412;9.514;2022-11-14T16:48:03;17.70;79.10
12977;DHT22;6553;48.412;9.514;2022-11-14T16:50:47;17.70;79.00
12977;DHT22;6553;48.412;9.514;2022-11-14T16:53:32;17.70;79.20
12977;DHT22;6553;48.412;9.514;2022-11-14T16:56:16;17.70;79.10
12977;DHT22;6553;48.412;9.514;2022-11-14T16:59:00;17.70;79.00
12977;DHT22;6553;48.412;9.514;2022-11-14T17:01:44;17.70;79.10
12977;DHT22;6553;48.412;9.514;2022-11-14T17:04:30;17.70;79.10
12977;DHT22;6553;48.412;9.514;2022-11-14T17:07:14;17.70;79.10
12977;DHT22;6553;48.412;9.514;2022-11-14T17:09:59;17.70;79.10
12977;DHT22;6553;48.412;9.514;2022-11-14T17:12:43;17.70;79.00
12977;DHT22;6553;48.412;9.514;2022-11-14T17:15:27;17.70;79.00
12977;DHT22;6553;48.412;9.514;2022-11-14T17:18:11;17.70;79.00
12977;DHT22;6553;48.412;9.514;2022-11-14T17:20:56;17.70;79.10
12977;DHT22;6553;48.412;9.514;2022-11-14T17:23:40;17.70;79.00
12977;DHT22;6553;48.412;9.514;2022-11-14T17:26:24;17.70;79.00
12977;DHT22;6553;48.412;9.514;2022-11-14T17:29:08;17.70;79.00
12977;DHT22;6553;48.412;9.514;2022-11-14T17:31:54;17.70;79.00
12977;DHT22;6553;48.412;9.514;2022-11-14T17:34:38;17.70;79.00
12977;DHT22;6553;48.412;9.514;2022-11-14T17:37:23;17.70;79.00
12977;DHT22;6553;48.412;9.514;2022-11-14T17:40:08;17.70;79.00
12977;DHT22;6553;48.412;9.514;2022-11-14T17:42:53;17.70;79.00
12977;DHT22;6553;48.412;9.514;2022-11-14T17:45:37;17.70;79.10
12977;DHT22;6553;48.412;9.514;2022-11-14T17:48:21;17.70;79.00
12977;DHT22;6553;48.412;9.514;2022-11-14T17:51:10;17.70;79.00
12977;DHT22;6553;48.412;9.514;2022-11-14T17:53:55;17.70;79.00
12977;DHT22;6553;48.412;9.514;2022-11-14T17:56:39;17.70;79.00
12977;DHT22;6553;48.412;9.514;2022-11-14T17:59:24;17.70;79.00
12977;DHT22;6553;48.412;9.514;2022-11-14T18:02:12;17.70;78.90
12977;DHT22;6553;48.412;9.514;2022-11-14T18:04:57;17.70;79.00
12977;DHT22;6553;48.412;9.514;2022-11-14T18:07:41;17.70;79.00
12977;DHT22;6553;48.412;9.514;2022-11-14T18:10:26;17.70;79.00
12977;DHT22;6553;48.412;9.514;2022-11-14T18:13:11;17.70;79.00
12977;DHT22;6553;48.412;9.514;2022-11-14T18:16:06;17.70;79.00
12977;DHT22;6553;48.412;9.514;2022-11-14T18:18:53;17.70;78.90
12977;DHT22;6553;48.412;9.514;2022-11-14T18:21:39;17.70;79.00
12977;DHT22;6553;48.412;9.514;2022-11-14T18:24:26;17.70;79.00
12977;DHT22;6553;48.412;9.514;2022-11-14T18:27:10;17.70;79.00
12977;DHT22;6553;48.412;9.514;2022-11-14T18:29:55;17.70;79.00
12977;DHT22;6553;48.412;9.514;2022-11-14T18:32:39;17.70;79.00
12977;DHT22;6553;48.412;9.514;2022-11-14T18:35:23;17.70;79.00
12977;DHT22;6553;48.412;9.514;2022-11-14T18:38:08;17.70;79.00
12977;DHT22;6553;48.412;9.514;2022-11-14T18:40:54;17.70;79.00
12977;DHT22;6553;48.412;9.514;2022-11-14T18:43:39;17.70;79.00
12977;DHT22;6553;48.412;9.514;2022-11-14T18:46:24;17.70;78.90
12977;DHT22;6553;48.412;9.514;2022-11-14T18:49:09;17.70;78.90
12977;DHT22;6553;48.412;9.514;2022-11-14T18:51:54;17.70;79.00
12977;DHT22;6553;48.412;9.514;2022-11-14T18:54:39;17.60;78.90
12977;DHT22;6553;48.412;9.514;2022-11-14T18:57:24;17.70;79.00
12977;DHT22;6553;48.412;9.514;2022-11-14T19:00:09;17.70;79.00
12977;DHT22;6553;48.412;9.514;2022-11-14T19:02:54;17.70;79.00
12977;DHT22;6553;48.412;9.514;2022-11-14T19:05:38;17.70;79.00
12977;DHT22;6553;48.412;9.514;2022-11-14T19:08:22;17.70;79.00
12977;DHT22;6553;48.412;9.514;2022-11-14T19:11:09;17.70;79.00
12977;DHT22;6553;48.412;9.514;2022-11-14T19:14:13;17.70;78.90
12977;DHT22;6553;48.412;9.514;2022-11-14T19:16:58;17.70;78.90
12977;DHT22;6553;48.412;9.514;2022-11-14T19:19:43;17.70;79.70
12977;DHT22;6553;48.412;9.514;2022-11-14T19:22:27;17.70;79.00
12977;DHT22;6553;48.412;9.514;2022-11-14T19:25:12;17.70;79.00
12977;DHT22;6553;48.412;9.514;2022-11-14T19:27:57;17.70;79.00
12977;DHT22;6553;48.412;9.514;2022-11-14T19:30:41;17.70;79.00
12977;DHT22;6553;48.412;9.514;2022-11-14T19:33:26;17.70;79.00
12977;DHT22;6553;48.412;9.514;2022-11-14T19:36:16;17.70;79.00
12977;DHT22;6553;48.412;9.514;2022-11-14T19:39:05;17.70;79.00
12977;DHT22;6553;48.412;9.514;2022-11-14T19:41:49;17.70;79.00
12977;DHT22;6553;48.412;9.514;2022-11-14T19:44:34;17.70;79.00
12977;DHT22;6553;48.412;9.514;2022-11-14T19:47:18;17.60;78.90
12977;DHT22;6553;48.412;9.514;2022-11-14T19:50:03;17.70;78.90
12977;DHT22;6553;48.412;9.514;2022-11-14T19:52:48;17.70;79.00
12977;DHT22;6553;48.412;9.514;2022-11-14T19:55:33;17.60;78.80
12977;DHT22;6553;48.412;9.514;2022-11-14T19:58:17;17.70;78.90
12977;DHT22;6553;48.412;9.514;2022-11-14T20:01:04;17.70;78.90